Time;durP1;ratioP1;P1;durP2;ratioP2;P2;SDS_P1;SDS_P2;PMS_P1;PMS_P2;Temp;Humidity;BMP_temperature;BMP_pressure;BME280_temperature;BME280_humidity;BME280_pressure;Samples;Min_cycle;Max_cycle;Signal;HPM_P1;HPM_P2
2022/11/21 00:01:48;;;;;;;4.10;2.67;;;;;;;9.71;100.00;93372.94;5070516;28;20277;-74
2022/11/21 00:04:14;;;;;;;7.03;3.42;;;;;;;9.84;100.00;93370.94;5070588;28;20207;-75
2022/11/21 00:06:41;;;;;;;5.15;2.75;;;;;;;9.88;100.00;93367.13;5069880;28;20210;-75
2022/11/21 00:09:08;;;;;;;5.63;3.17;;;;;;;9.78;100.00;93362.28;5070198;28;20285;-74
2022/11/21 00:11:35;;;;;;;4.80;2.72;;;;;;;9.90;100.00;93353.25;5049803;28;20597;-75
2022/11/21 00:14:01;;;;;;;5.07;2.50;;;;;;;9.84;100.00;93350.03;5050275;28;20732;-75
2022/11/21 00:16:29;;;;;;;4.15;2.20;;;;;;;9.77;100.00;93333.69;5056582;28;20666;-75
2022/11/21 00:18:57;;;;;;;5.28;2.65;;;;;;;9.82;100.00;93335.34;5056227;28;20245;-75
2022/11/21 00:21:24;;;;;;;3.88;2.00;;;;;;;9.86;100.00;93342.38;5049822;28;20258;-74
2022/11/21 00:23:52;;;;;;;3.60;2.08;;;;;;;9.79;100.00;93319.81;5049823;28;20651;-74
2022/11/21 00:26:19;;;;;;;3.40;2.33;;;;;;;9.73;100.00;93303.06;5050229;28;20215;-75
2022/11/21 00:28:46;;;;;;;3.88;2.13;;;;;;;9.79;100.00;93298.97;5049711;28;20254;-75
2022/11/21 00:31:19;;;;;;;4.13;2.53;;;;;;;9.79;100.00;93288.16;5049400;28;20620;-74
2022/11/21 00:33:47;;;;;;;4.70;3.00;;;;;;;9.78;100.00;93291.97;5062550;28;20276;-74
2022/11/21 00:36:14;;;;;;;3.65;2.47;;;;;;;9.70;100.00;93294.91;5048596;28;20208;-74
2022/11/21 00:38:41;;;;;;;8.30;2.65;;;;;;;9.64;100.00;93307.91;5048967;28;21792;-74
2022/11/21 00:41:07;;;;;;;2.80;1.98;;;;;;;9.56;100.00;93276.47;5049463;28;20300;-74
2022/11/21 00:43:34;;;;;;;6.75;2.63;;;;;;;9.58;100.00;93284.97;5049665;28;20627;-74
2022/11/21 00:46:01;;;;;;;4.15;2.40;;;;;;;9.71;100.00;93308.03;5049380;28;20258;-74
2022/11/21 00:48:29;;;;;;;4.32;2.88;;;;;;;9.78;100.00;93316.31;5049292;28;20223;-74
2022/11/21 00:50:59;;;;;;;3.72;2.67;;;;;;;9.72;100.00;93301.50;5049507;28;20208;-74
2022/11/21 00:53:25;;;;;;;6.75;2.67;;;;;;;9.64;100.00;93272.75;5048568;28;20710;-74
2022/11/21 00:55:52;;;;;;;4.72;3.10;;;;;;;9.64;100.00;93280.88;5049210;28;20253;-74
2022/11/21 00:58:19;;;;;;;4.68;2.95;;;;;;;9.56;100.00;93284.56;5049269;28;20212;-73
2022/11/21 01:00:46;;;;;;;3.47;2.33;;;;;;;9.58;100.00;93284.97;5049198;28;20309;-74
2022/11/21 01:03:12;;;;;;;4.95;3.30;;;;;;;9.59;100.00;93291.94;5048056;28;20215;-74
2022/11/21 01:05:39;;;;;;;4.90;3.28;;;;;;;9.42;100.00;93258.03;5049037;28;20212;-75
2022/11/21 01:08:07;;;;;;;4.22;2.50;;;;;;;9.43;100.00;93261.50;5049173;28;20203;-74
2022/11/21 01:10:34;;;;;;;5.15;3.35;;;;;;;9.45;100.00;93280.84;5048599;28;20283;-75
2022/11/21 01:13:01;;;;;;;4.75;2.70;;;;;;;9.52;100.00;93278.31;5062496;28;20223;-75
2022/11/21 01:15:28;;;;;;;5.93;3.08;;;;;;;9.63;100.00;93290.13;5048538;28;20239;-75
2022/11/21 01:17:55;;;;;;;5.03;2.92;;;;;;;9.60;100.00;93285.41;5048807;28;20211;-74
2022/11/21 01:20:21;;;;;;;4.00;3.03;;;;;;;9.59;100.00;93284.63;5048899;28;20285;-75
2022/11/21 01:22:48;;;;;;;2.38;2.17;;;;;;;9.70;100.00;93271.34;5049715;28;20249;-74
2022/11/21 01:25:16;;;;;;;2.92;1.70;;;;;;;9.69;100.00;93272.50;5048775;28;20208;-75
2022/11/21 01:27:43;;;;;;;4.43;2.72;;;;;;;9.72;100.00;93284.50;5048783;28;20294;-75
2022/11/21 01:30:11;;;;;;;6.15;2.97;;;;;;;9.76;100.00;93283.44;5048554;28;20301;-75
2022/11/21 01:32:38;;;;;;;3.97;2.00;;;;;;;9.89;100.00;93281.38;5048241;28;20235;-75
2022/11/21 01:35:05;;;;;;;1.38;1.02;;;;;;;9.94;100.00;93265.66;5048470;28;20211;-75
2022/11/21 01:37:32;;;;;;;4.55;2.40;;;;;;;10.02;100.00;93271.19;5047664;28;20310;-75
2022/11/21 01:39:59;;;;;;;7.07;2.60;;;;;;;10.00;100.00;93260.72;5048811;28;20285;-76
2022/11/21 01:42:27;;;;;;;1.30;1.20;;;;;;;9.81;100.00;93263.47;5048283;28;20222;-74
2022/11/21 01:44:54;;;;;;;2.92;1.88;;;;;;;9.80;100.00;93256.47;5048382;28;20280;-74
2022/11/21 01:47:21;;;;;;;3.28;1.98;;;;;;;9.85;100.00;93248.84;5048075;28;20195;-75
2022/11/21 01:49:49;;;;;;;3.90;1.77;;;;;;;9.90;100.00;93250.50;5048312;28;20203;-74
2022/11/21 01:52:20;;;;;;;5.28;2.33;;;;;;;9.83;100.00;93256.56;5068743;28;20219;-76
2022/11/21 01:54:52;;;;;;;3.47;2.15;;;;;;;9.85;100.00;93262.38;5067179;28;20202;-74
2022/11/21 01:57:22;;;;;;;4.45;2.40;;;;;;;9.87;100.00;93251.97;5048527;28;20203;-75
2022/11/21 01:59:56;;;;;;;3.90;2.25;;;;;;;9.89;100.00;93257.81;5048485;28;20289;-75
2022/11/21 02:02:27;;;;;;;3.80;2.28;;;;;;;9.86;100.00;93250.41;5048442;28;20195;-74
2022/11/21 02:04:56;;;;;;;3.90;2.20;;;;;;;9.93;100.00;93250.56;5051935;28;20199;-75
2022/11/21 02:07:24;;;;;;;4.15;2.65;;;;;;;9.85;100.00;93265.06;5052028;28;20211;-76
2022/11/21 02:09:55;;;;;;;3.65;2.88;;;;;;;9.89;100.00;93275.97;5057546;28;20260;-75
2022/11/21 02:12:26;;;;;;;2.75;1.83;;;;;;;9.87;100.00;93276.31;5059502;28;20204;-76
2022/11/21 02:14:55;;;;;;;3.42;2.33;;;;;;;9.93;100.00;93277.63;5052605;28;20235;-76
2022/11/21 02:17:22;;;;;;;3.95;2.28;;;;;;;9.94;100.00;93256.75;5052271;28;20199;-75
2022/11/21 02:19:54;;;;;;;3.10;1.80;;;;;;;9.90;100.00;93245.09;5051778;28;20627;-75
2022/11/21 02:22:32;;;;;;;5.50;2.78;;;;;;;9.98;100.00;93258.38;5052885;28;20204;-75
2022/11/21 02:25:06;;;;;;;2.95;2.17;;;;;;;10.05;100.00;93278.59;5053045;28;20285;-76
2022/11/21 02:27:34;;;;;;;4.18;2.42;;;;;;;9.98;100.00;93279.22;5052226;28;20273;-75
2022/11/21 02:30:01;;;;;;;4.60;2.25;;;;;;;9.86;100.00;93255.81;5052627;28;20277;-74
2022/11/21 02:32:34;;;;;;;5.53;2.40;;;;;;;9.95;100.00;93264.53;5052332;28;20285;-74
2022/11/21 02:35:01;;;;;;;5.00;2.65;;;;;;;9.96;100.00;93268.78;5062031;28;20195;-75
2022/11/21 02:37:28;;;;;;;4.40;2.50;;;;;;;9.97;100.00;93267.66;5052995;28;20199;-75
2022/11/21 02:39:57;;;;;;;5.18;2.40;;;;;;;10.04;100.00;93258.88;5051573;28;20305;-74
2022/11/21 02:42:31;;;;;;;5.32;2.83;;;;;;;10.13;100.00;93259.44;5051512;28;20285;-75
2022/11/21 02:45:08;;;;;;;9.73;3.65;;;;;;;10.18;100.00;93258.38;5051237;28;20760;-74
2022/11/21 02:47:37;;;;;;;4.82;2.97;;;;;;;10.19;100.00;93243.72;5058801;28;20195;-76
2022/11/21 02:50:12;;;;;;;5.70;1.33;;;;;;;10.27;100.00;93215.66;5054444;28;20797;-75
2022/11/21 02:52:39;;;;;;;6.13;2.92;;;;;;;10.22;100.00;93221.38;5051063;28;20195;-76
2022/11/21 02:55:07;;;;;;;4.97;2.92;;;;;;;10.15;100.00;93213.09;5050814;28;20270;-76
2022/11/21 02:57:35;;;;;;;6.28;2.95;;;;;;;10.01;100.00;93223.63;5051420;28;20273;-74
2022/11/21 03:00:02;;;;;;;2.20;1.85;;;;;;;10.14;100.00;93222.34;5056039;28;20281;-76
2022/11/21 03:02:29;;;;;;;5.18;1.98;;;;;;;10.19;100.00;93197.72;5060395;28;20326;-75
2022/11/21 03:04:56;;;;;;;5.20;2.45;;;;;;;10.22;100.00;93202.44;5051863;28;20211;-75
2022/11/21 03:07:23;;;;;;;8.30;2.53;;;;;;;10.30;100.00;93182.47;5050699;28;20204;-76
2022/11/21 03:09:49;;;;;;;5.35;2.03;;;;;;;10.18;100.00;93196.94;5051608;28;20717;-75
2022/11/21 03:12:16;;;;;;;2.47;1.65;;;;;;;10.19;100.00;93193.09;5051648;28;20211;-75
2022/11/21 03:14:44;;;;;;;12.45;2.53;;;;;;;10.30;100.00;93209.53;5050671;28;20273;-76
2022/11/21 03:17:11;;;;;;;1.50;1.40;;;;;;;10.32;100.00;93196.41;5051083;28;20767;-76
2022/11/21 03:19:38;;;;;;;1.88;1.50;;;;;;;10.41;100.00;93199.66;5051157;28;20211;-76
2022/11/21 03:22:04;;;;;;;3.15;1.77;;;;;;;10.41;100.00;93194.25;5050892;28;20232;-75
2022/11/21 03:24:31;;;;;;;2.25;1.73;;;;;;;10.37;100.00;93220.50;5051681;28;20277;-75
2022/11/21 03:26:58;;;;;;;2.08;1.23;;;;;;;10.44;100.00;93214.41;5051259;28;20252;-75
2022/11/21 03:29:25;;;;;;;4.03;0.90;;;;;;;11.03;94.90;93187.50;5051177;28;20265;-75
2022/11/21 03:31:53;;;;;;;0.52;0.52;;;;;;;11.15;96.18;93191.91;5050865;28;20249;-75
2022/11/21 03:34:19;;;;;;;0.90;0.80;;;;;;;11.09;98.26;93211.53;5057275;28;20534;-75
2022/11/21 03:36:46;;;;;;;0.88;0.70;;;;;;;10.90;98.72;93205.09;5058869;28;20238;-75
2022/11/21 03:39:13;;;;;;;0.68;0.68;;;;;;;10.88;99.87;93174.09;5050608;28;20354;-75
2022/11/21 03:41:40;;;;;;;2.33;1.67;;;;;;;10.75;100.00;93202.53;5050521;28;20824;-75
2022/11/21 03:44:08;;;;;;;2.72;1.20;;;;;;;10.77;100.00;93195.63;5050665;28;20740;-76
2022/11/21 03:46:37;;;;;;;4.13;0.93;;;;;;;10.88;98.55;93198.47;5051136;28;20203;-74
2022/11/21 03:49:06;;;;;;;1.95;0.85;;;;;;;10.99;97.04;93175.03;5050205;28;20273;-75
2022/11/21 03:51:33;;;;;;;1.05;0.70;;;;;;;11.13;95.87;93180.66;5064171;28;20202;-76
2022/11/21 03:54:00;;;;;;;5.07;1.10;;;;;;;11.03;97.45;93170.44;5070413;28;20557;-73
2022/11/21 03:56:26;;;;;;;4.70;1.02;;;;;;;11.22;95.27;93199.34;5070618;28;20206;-75
2022/11/21 03:58:53;;;;;;;1.13;0.70;;;;;;;11.19;94.97;93184.63;5070330;28;20308;-74
2022/11/21 04:01:20;;;;;;;0.50;0.50;;;;;;;11.88;87.37;93160.69;5054121;28;20261;-75
2022/11/21 04:03:47;;;;;;;1.80;1.00;;;;;;;11.94;86.06;93159.19;5050581;28;20257;-73
2022/11/21 04:06:17;;;;;;;1.48;1.02;;;;;;;12.01;86.12;93170.16;5050007;28;20250;-75
2022/11/21 04:08:44;;;;;;;0.68;0.68;;;;;;;12.00;84.97;93155.00;5050258;28;20210;-74
2022/11/21 04:11:11;;;;;;;0.60;0.50;;;;;;;12.28;81.15;93142.88;5063096;28;20204;-74
2022/11/21 04:13:39;;;;;;;1.08;0.65;;;;;;;12.56;79.48;93162.13;5050434;28;20652;-74
2022/11/21 04:16:06;;;;;;;1.27;0.70;;;;;;;12.89;77.63;93141.38;5063453;28;20231;-73
2022/11/21 04:18:34;;;;;;;1.02;0.95;;;;;;;12.74;78.39;93135.84;5050386;28;20212;-74
2022/11/21 04:21:02;;;;;;;1.10;0.60;;;;;;;12.98;76.05;93125.53;5062286;28;20235;-74
2022/11/21 04:23:31;;;;;;;1.83;0.82;;;;;;;12.62;79.71;93138.88;5050225;28;20253;-74
2022/11/21 04:25:57;;;;;;;1.10;0.50;;;;;;;12.52;80.57;93145.00;5049598;28;20208;-74
2022/11/21 04:28:24;;;;;;;0.50;0.40;;;;;;;12.49;81.45;93153.91;5049498;28;20294;-75
2022/11/21 04:30:51;;;;;;;1.10;0.80;;;;;;;12.94;74.57;93149.97;5049252;28;20204;-76
2022/11/21 04:33:19;;;;;;;3.60;0.70;;;;;;;13.17;75.44;93147.03;5049967;28;20231;-75
2022/11/21 04:35:47;;;;;;;3.45;0.75;;;;;;;13.04;76.17;93170.22;5050439;28;20204;-77
2022/11/21 04:38:14;;;;;;;0.38;0.38;;;;;;;13.11;74.18;93171.06;5050260;28;20207;-77
2022/11/21 04:40:43;;;;;;;0.60;0.60;;;;;;;13.19;74.83;93158.31;5049102;28;20648;-76
2022/11/21 04:43:09;;;;;;;1.65;0.70;;;;;;;13.22;72.36;93154.84;5049731;28;20667;-77
2022/11/21 04:45:36;;;;;;;7.15;1.25;;;;;;;13.32;73.39;93153.34;5049497;28;20264;-76
2022/11/21 04:48:03;;;;;;;1.55;0.40;;;;;;;13.28;73.45;93145.16;5049696;28;20207;-76
2022/11/21 04:50:30;;;;;;;1.15;0.68;;;;;;;13.15;74.10;93154.78;5050168;28;20203;-75
2022/11/21 04:52:57;;;;;;;1.50;0.80;;;;;;;12.94;77.69;93169.00;5049816;28;20204;-77
2022/11/21 04:55:27;;;;;;;4.28;1.10;;;;;;;12.66;81.16;93156.00;5055824;28;20210;-77
2022/11/21 04:57:55;;;;;;;1.33;0.75;;;;;;;12.44;82.43;93192.25;5068873;28;20207;-76
2022/11/21 05:00:22;;;;;;;2.47;1.33;;;;;;;12.13;86.37;93198.16;5062366;28;20212;-77
2022/11/21 05:02:49;;;;;;;3.63;1.10;;;;;;;11.84;89.62;93206.00;5048551;28;20745;-77
2022/11/21 05:05:16;;;;;;;0.75;0.75;;;;;;;11.61;91.17;93208.00;5048738;28;20219;-75
2022/11/21 05:07:42;;;;;;;2.10;1.00;;;;;;;11.26;93.38;93211.81;5048828;28;20203;-76
2022/11/21 05:10:09;;;;;;;1.08;0.98;;;;;;;11.03;95.53;93224.63;5049278;28;20211;-78
2022/11/21 05:15:24;;;;;;;0.73;0.73;;;;;;;10.56;97.57;93217.69;5014852;28;20665;-77
2022/11/21 05:17:51;;;;;;;3.00;1.27;;;;;;;10.40;98.69;93222.44;5049850;28;20689;-75
2022/11/21 05:20:18;;;;;;;1.17;1.00;;;;;;;10.40;98.97;93235.97;5049313;28;20203;-78
2022/11/21 05:22:48;;;;;;;0.95;0.52;;;;;;;10.40;96.34;93235.19;5049650;28;20281;-78
2022/11/21 05:25:15;;;;;;;1.38;0.82;;;;;;;10.38;96.74;93234.81;5049253;28;20617;-79
2022/11/21 05:27:42;;;;;;;0.85;0.85;;;;;;;10.39;96.99;93236.38;5054679;28;20207;-77
2022/11/21 05:30:10;;;;;;;0.50;0.50;;;;;;;10.39;96.91;93239.06;5056850;28;20204;-78
2022/11/21 05:32:38;;;;;;;1.02;0.75;;;;;;;10.33;95.32;93211.50;5049097;28;20250;-78
2022/11/21 05:35:08;;;;;;;0.50;0.50;;;;;;;11.54;82.43;93216.03;5049743;28;20607;-80
2022/11/21 05:37:34;;;;;;;1.13;0.77;;;;;;;11.31;89.45;93246.75;5049311;28;20200;-79
2022/11/21 05:40:01;;;;;;;6.57;0.90;;;;;;;11.12;90.85;93263.09;5049670;28;20211;-79
2022/11/21 05:45:10;;;;;;;4.28;0.52;;;;;;;10.45;92.87;93276.28;5049166;28;20207;-79
2022/11/21 05:47:38;;;;;;;3.20;0.70;;;;;;;10.43;93.64;93254.22;5057612;28;20214;-79
2022/11/21 05:50:06;;;;;;;5.70;1.25;;;;;;;10.51;94.13;93269.47;5052715;28;20196;-77
2022/11/21 05:52:33;;;;;;;1.17;0.77;;;;;;;10.15;93.23;93261.78;5048589;28;20207;-77
2022/11/21 05:54:59;;;;;;;0.45;0.45;;;;;;;9.94;92.51;93265.66;5061629;28;20217;-78
2022/11/21 05:57:26;;;;;;;0.95;0.80;;;;;;;9.64;93.89;93270.06;5048292;28;20207;-79
2022/11/21 05:59:53;;;;;;;0.70;0.70;;;;;;;9.49;93.46;93290.59;5048747;28;20684;-78
2022/11/21 06:05:06;;;;;;;0.60;0.60;;;;;;;9.21;93.30;93301.56;5049646;28;20206;-79
2022/11/21 06:07:33;;;;;;;2.20;0.57;;;;;;;9.09;93.95;93298.97;5049004;28;20211;-78
2022/11/21 06:10:00;;;;;;;0.45;0.45;;;;;;;8.99;93.42;93326.50;5048254;28;20211;-78
2022/11/21 06:12:27;;;;;;;1.48;0.60;;;;;;;8.91;93.23;93330.94;5048607;28;20204;-79
2022/11/21 06:14:54;;;;;;;0.63;0.57;;;;;;;8.66;93.33;93336.84;5047490;28;20228;-79
2022/11/21 06:17:21;;;;;;;0.82;0.52;;;;;;;8.48;93.97;93364.16;5048605;28;20673;-80
2022/11/21 06:19:48;;;;;;;1.55;0.65;;;;;;;8.50;94.79;93372.69;5049172;28;20216;-78
2022/11/21 06:22:16;;;;;;;0.90;0.57;;;;;;;8.58;93.50;93380.97;5048970;28;20250;-78
2022/11/21 06:24:43;;;;;;;4.45;0.65;;;;;;;8.52;93.67;93373.13;5047984;28;20211;-79
2022/11/21 06:27:09;;;;;;;0.43;0.43;;;;;;;8.24;94.20;93380.41;5061495;28;20199;-76
2022/11/21 06:29:37;;;;;;;0.20;0.20;;;;;;;8.00;94.25;93377.81;5049182;28;20220;-78
2022/11/21 06:32:04;;;;;;;0.63;0.60;;;;;;;7.72;95.62;93386.63;5047886;28;20204;-79
2022/11/21 06:34:30;;;;;;;0.40;0.40;;;;;;;7.75;95.89;93409.44;5048714;28;20227;-79
2022/11/21 06:36:57;;;;;;;0.47;0.45;;;;;;;7.90;95.75;93408.72;5047516;28;20204;-79
2022/11/21 06:39:26;;;;;;;0.50;0.40;;;;;;;8.00;95.75;93423.66;5048653;28;20609;-81
2022/11/21 06:41:52;;;;;;;0.43;0.40;;;;;;;7.93;95.51;93420.72;5048766;28;20255;-79
2022/11/21 06:44:19;;;;;;;2.45;0.60;;;;;;;7.80;95.91;93411.88;5048576;28;20207;-78
2022/11/21 06:46:46;;;;;;;1.17;0.60;;;;;;;7.43;96.28;93414.63;5048076;28;20253;-77
2022/11/21 06:49:15;;;;;;;0.50;0.50;;;;;;;7.35;97.75;93441.69;5048608;28;20266;-80
2022/11/21 06:51:42;;;;;;;0.45;0.45;;;;;;;7.25;98.75;93450.19;5051698;28;20200;-79
2022/11/21 06:54:09;;;;;;;0.85;0.65;;;;;;;7.02;98.95;93461.38;5052314;28;20265;-79
2022/11/21 06:56:37;;;;;;;0.50;0.50;;;;;;;6.76;100.00;93467.03;5051923;28;20625;-77
2022/11/21 06:59:03;;;;;;;1.15;0.80;;;;;;;6.71;100.00;93496.03;5062246;28;20203;-78
2022/11/21 07:01:30;;;;;;;0.73;0.50;;;;;;;6.36;100.00;93498.25;5054898;28;20292;-79
2022/11/21 07:03:57;;;;;;;1.42;0.70;;;;;;;6.30;100.00;93505.72;5051682;28;20207;-78
2022/11/21 07:06:26;;;;;;;0.82;0.60;;;;;;;6.24;100.00;93498.97;5055712;28;20207;-80
2022/11/21 07:08:57;;;;;;;0.70;0.70;;;;;;;6.61;100.00;93516.06;5061687;28;20214;-77
2022/11/21 07:11:26;;;;;;;0.82;0.80;;;;;;;6.30;100.00;93513.78;5065727;28;20285;-78
2022/11/21 07:13:58;;;;;;;0.60;0.60;;;;;;;6.26;100.00;93512.09;5052064;28;20235;-76
2022/11/21 07:16:31;;;;;;;2.45;1.35;;;;;;;6.27;100.00;93525.22;5065019;28;20203;-76
2022/11/21 07:18:59;;;;;;;1.33;0.73;;;;;;;5.99;100.00;93526.81;5052297;28;20203;-74
2022/11/21 07:21:26;;;;;;;1.38;0.95;;;;;;;5.88;100.00;93526.38;5052480;28;20223;-78
2022/11/21 07:23:55;;;;;;;1.88;0.68;;;;;;;5.71;100.00;93554.13;5052311;28;20317;-74
2022/11/21 07:26:24;;;;;;;0.75;0.68;;;;;;;5.62;100.00;93547.97;5071061;28;20662;-78
2022/11/21 07:28:51;;;;;;;1.70;1.00;;;;;;;5.52;100.00;93575.22;5054054;28;20257;-74
2022/11/21 07:31:19;;;;;;;1.88;0.80;;;;;;;5.48;100.00;93590.38;5059496;28;20198;-77
2022/11/21 07:33:47;;;;;;;0.68;0.68;;;;;;;5.41;100.00;93579.34;5056892;28;20286;-78
2022/11/21 07:36:17;;;;;;;1.48;1.00;;;;;;;5.26;100.00;93577.19;5062682;28;20208;-78
2022/11/21 07:38:46;;;;;;;0.90;0.80;;;;;;;5.26;100.00;93601.34;5049750;28;20204;-78
2022/11/21 07:41:15;;;;;;;1.05;0.88;;;;;;;5.27;100.00;93594.88;5050159;28;20211;-76
2022/11/21 07:43:42;;;;;;;1.77;1.13;;;;;;;5.31;100.00;93617.28;5049952;28;20250;-74
2022/11/21 07:46:08;;;;;;;1.00;0.80;;;;;;;5.25;100.00;93607.81;5059291;28;20240;-74
2022/11/21 07:48:36;;;;;;;2.10;1.35;;;;;;;5.34;100.00;93600.53;5053602;28;20200;-74
2022/11/21 07:51:05;;;;;;;1.80;1.10;;;;;;;5.32;100.00;93610.81;5051290;28;20203;-73
2022/11/21 07:53:32;;;;;;;2.28;1.38;;;;;;;5.28;100.00;93620.63;5050357;28;20655;-75
2022/11/21 07:55:59;;;;;;;2.78;1.67;;;;;;;5.34;100.00;93622.00;5055033;28;20230;-74
2022/11/21 07:58:26;;;;;;;1.30;1.17;;;;;;;5.32;100.00;93616.97;5069483;28;20462;-74
2022/11/21 08:00:53;;;;;;;3.28;2.17;;;;;;;5.11;100.00;93623.31;5070335;28;20719;-74
2022/11/21 08:03:20;;;;;;;2.60;1.35;;;;;;;5.07;100.00;93665.31;5068676;28;20245;-75
2022/11/21 08:05:48;;;;;;;7.75;2.92;;;;;;;5.04;100.00;93653.34;5059275;28;20215;-75
2022/11/21 08:08:15;;;;;;;4.70;2.05;;;;;;;4.96;100.00;93654.91;5054765;28;20207;-75
2022/11/21 08:10:44;;;;;;;3.92;2.25;;;;;;;5.00;100.00;93655.84;5049985;28;20720;-76
2022/11/21 08:13:11;;;;;;;1.13;1.02;;;;;;;4.92;100.00;93647.81;5049226;28;20207;-75
2022/11/21 08:15:38;;;;;;;3.63;1.27;;;;;;;4.95;100.00;93664.03;5055430;28;20928;-73
2022/11/21 08:18:09;;;;;;;2.30;1.20;;;;;;;4.94;100.00;93665.16;5055151;28;20195;-76
2022/11/21 08:20:36;;;;;;;1.27;1.00;;;;;;;4.89;100.00;93665.31;5051517;28;20293;-73
2022/11/21 08:23:05;;;;;;;1.33;1.00;;;;;;;4.91;100.00;93673.84;5062859;28;20235;-75
2022/11/21 08:25:32;;;;;;;0.65;0.65;;;;;;;4.83;100.00;93669.25;5065120;28;20257;-73
2022/11/21 08:27:59;;;;;;;2.50;1.38;;;;;;;4.89;100.00;93681.41;5061975;28;20277;-75
2022/11/21 08:30:26;;;;;;;1.83;1.17;;;;;;;5.00;100.00;93682.69;5051275;28;20214;-73
2022/11/21 08:32:53;;;;;;;0.82;0.70;;;;;;;4.91;100.00;93679.22;5052627;28;20228;-75
2022/11/21 08:35:19;;;;;;;2.47;0.85;;;;;;;4.89;100.00;93683.31;5051933;28;20207;-75
2022/11/21 08:37:46;;;;;;;1.50;1.00;;;;;;;4.97;100.00;93683.31;5049278;28;20207;-76
2022/11/21 08:40:16;;;;;;;0.70;0.70;;;;;;;5.10;100.00;93686.16;5049864;28;20219;-75
2022/11/21 08:42:43;;;;;;;1.52;1.13;;;;;;;5.04;100.00;93682.06;5049734;28;20258;-76
2022/11/21 08:45:10;;;;;;;1.35;1.00;;;;;;;5.17;100.00;93675.75;5050213;28;20200;-78
2022/11/21 08:47:37;;;;;;;1.10;0.70;;;;;;;5.24;100.00;93676.03;5049630;28;20207;-75
2022/11/21 08:50:04;;;;;;;5.03;2.28;;;;;;;5.38;100.00;93687.41;5052582;28;20194;-76
2022/11/21 08:52:31;;;;;;;12.73;4.22;;;;;;;5.47;100.00;93688.16;5058556;28;20290;-74
2022/11/21 08:54:58;;;;;;;7.10;2.72;;;;;;;5.46;99.45;93683.94;5049822;28;20269;-76
2022/11/21 08:57:27;;;;;;;9.52;3.40;;;;;;;5.56;99.34;93688.97;5049429;28;20211;-75
2022/11/21 08:59:54;;;;;;;7.60;3.22;;;;;;;5.81;99.49;93694.59;5049050;28;20211;-76
2022/11/21 09:02:20;;;;;;;4.13;1.70;;;;;;;5.85;99.41;93690.16;5049055;28;20281;-77
2022/11/21 09:04:47;;;;;;;1.88;1.35;;;;;;;5.76;97.98;93687.47;5049186;28;20211;-76
2022/11/21 09:07:14;;;;;;;2.72;1.10;;;;;;;5.72;99.04;93686.56;5048846;28;20222;-76
2022/11/21 09:09:41;;;;;;;1.92;1.25;;;;;;;5.72;98.22;93683.88;5048130;28;20704;-75
2022/11/21 09:12:07;;;;;;;0.85;0.70;;;;;;;5.56;97.82;93696.22;5048010;28;20203;-75
2022/11/21 09:20:04;;;;;;;0.47;0.47;;;;;;;5.23;100.00;93701.31;5048220;28;20215;-74
2022/11/21 09:22:31;;;;;;;2.85;2.58;;;;;;;5.16;100.00;93684.91;5047809;28;20269;-76
2022/11/21 09:24:58;;;;;;;0.50;0.50;;;;;;;5.05;100.00;93683.63;5047683;28;20211;-76
2022/11/21 09:27:25;;;;;;;1.13;0.95;;;;;;;5.09;100.00;93689.94;5047465;28;20216;-74
2022/11/21 09:29:53;;;;;;;0.90;0.85;;;;;;;5.02;100.00;93690.41;5047398;28;20268;-75
2022/11/21 09:32:19;;;;;;;0.52;0.52;;;;;;;5.00;100.00;93685.38;5047079;28;20639;-75
2022/11/21 09:34:46;;;;;;;1.15;0.70;;;;;;;5.04;100.00;93687.44;5047989;28;20207;-73
2022/11/21 09:37:13;;;;;;;0.45;0.45;;;;;;;5.11;100.00;93685.84;5050992;28;20211;-74
2022/11/21 09:39:40;;;;;;;3.25;2.47;;;;;;;5.20;100.00;93697.34;5057494;28;20211;-75
2022/11/21 09:42:29;;;;;;;0.65;0.65;;;;;;;5.16;100.00;93701.00;5047226;28;20239;-75
2022/11/21 09:45:08;;;;;;;0.57;0.57;;;;;;;5.21;100.00;93698.94;5058341;28;20207;-75
2022/11/21 09:47:38;;;;;;;0.70;0.55;;;;;;;5.23;100.00;93685.19;5059893;28;20265;-76
2022/11/21 09:50:07;;;;;;;0.93;0.82;;;;;;;5.28;100.00;93693.09;5052331;28;20491;-76
2022/11/21 09:52:41;;;;;;;1.02;1.00;;;;;;;5.32;100.00;93688.69;5068714;28;20271;-75
2022/11/21 09:55:18;;;;;;;2.35;1.42;;;;;;;5.39;100.00;93705.09;5068545;28;21099;-75
2022/11/21 09:57:47;;;;;;;0.70;0.60;;;;;;;5.44;100.00;93696.88;5056248;28;20623;-75
2022/11/21 10:00:19;;;;;;;0.50;0.50;;;;;;;5.27;100.00;93713.00;5061652;28;20265;-75
2022/11/21 10:02:46;;;;;;;1.80;0.75;;;;;;;5.21;100.00;93724.97;5047668;28;20292;-75
2022/11/21 10:05:14;;;;;;;0.55;0.55;;;;;;;5.07;100.00;93718.97;5056684;28;20203;-75
2022/11/21 10:07:42;;;;;;;0.80;0.60;;;;;;;5.12;100.00;93726.88;5054352;28;20211;-74
2022/11/21 10:10:28;;;;;;;0.68;0.47;;;;;;;5.14;100.00;93717.41;5053600;28;20284;-74
2022/11/21 10:13:06;;;;;;;0.45;0.45;;;;;;;4.92;100.00;93728.31;5048748;28;20224;-76
2022/11/21 10:15:50;;;;;;;0.60;0.60;;;;;;;4.85;100.00;93744.84;5048783;28;20747;-75
2022/11/21 10:18:53;;;;;;;0.75;0.75;;;;;;;4.79;100.00;93732.69;5048965;28;20199;-73
2022/11/21 10:21:40;;;;;;;0.77;0.77;;;;;;;4.84;100.00;93729.84;5048651;28;20293;-74
2022/11/21 10:24:22;;;;;;;3.10;2.38;;;;;;;5.09;100.00;93744.41;5060066;28;20223;-74
2022/11/21 10:26:53;;;;;;;3.88;2.88;;;;;;;5.11;100.00;93741.41;5060729;28;20207;-75
2022/11/21 10:29:26;;;;;;;3.97;2.35;;;;;;;5.13;100.00;93740.00;5052155;28;20262;-76
2022/11/21 10:31:58;;;;;;;1.77;1.33;;;;;;;5.05;100.00;93751.53;5051850;28;20207;-76
2022/11/21 10:34:29;;;;;;;1.10;0.90;;;;;;;4.99;100.00;93750.88;5051406;28;20620;-76
2022/11/21 10:37:00;;;;;;;1.60;1.02;;;;;;;5.01;100.00;93747.88;5067558;28;20245;-75
2022/11/21 10:39:34;;;;;;;1.38;1.27;;;;;;;5.20;100.00;93742.19;5061439;28;20199;-75
2022/11/21 10:42:09;;;;;;;9.68;2.97;;;;;;;5.21;100.00;93739.19;5062406;28;20586;-74
2022/11/21 10:47:27;;;;;;;1.52;1.42;;;;;;;5.10;100.00;93746.00;5050608;28;20207;-74
2022/11/21 10:50:00;;;;;;;1.52;1.40;;;;;;;5.18;100.00;93752.47;5050888;28;20571;-76
2022/11/21 10:52:31;;;;;;;1.13;1.02;;;;;;;5.18;100.00;93747.91;5050462;28;20289;-73
2022/11/21 10:55:10;;;;;;;0.80;0.80;;;;;;;5.15;100.00;93751.22;5050941;28;20219;-74
2022/11/21 10:57:42;;;;;;;1.83;1.10;;;;;;;5.13;100.00;93758.00;5050737;28;20606;-75
2022/11/21 11:00:20;;;;;;;1.23;1.08;;;;;;;5.28;100.00;93757.53;5063384;28;20196;-74
2022/11/21 11:03:08;;;;;;;2.85;1.55;;;;;;;5.62;100.00;93756.72;5050184;28;20258;-75
2022/11/21 11:05:37;;;;;;;1.10;0.85;;;;;;;5.59;100.00;93758.16;5050251;28;20245;-74
2022/11/21 11:08:08;;;;;;;1.60;1.20;;;;;;;5.74;100.00;93761.47;5050550;28;20581;-74
2022/11/21 11:10:37;;;;;;;1.27;1.17;;;;;;;5.72;100.00;93756.41;5050264;28;20227;-74
2022/11/21 11:16:03;;;;;;;0.95;0.85;;;;;;;5.62;100.00;93752.13;5054483;28;20333;-75
2022/11/21 11:18:34;;;;;;;2.00;1.60;;;;;;;5.59;100.00;93749.31;5050550;28;20214;-75
2022/11/21 11:21:17;;;;;;;1.95;1.38;;;;;;;5.48;100.00;93740.78;5049953;28;20204;-74
2022/11/21 11:23:45;;;;;;;1.75;1.05;;;;;;;5.59;100.00;93734.00;5062996;28;20226;-74
2022/11/21 11:26:24;;;;;;;1.15;0.82;;;;;;;5.57;100.00;93738.88;5050484;28;20219;-75
2022/11/21 11:28:54;;;;;;;3.67;1.88;;;;;;;5.86;100.00;93740.91;5063546;28;20191;-74
2022/11/21 11:31:21;;;;;;;2.80;1.35;;;;;;;5.93;100.00;93751.19;5049920;28;20200;-75
2022/11/21 11:33:56;;;;;;;0.73;0.73;;;;;;;5.72;100.00;93740.28;5049547;28;20251;-75
2022/11/21 11:36:38;;;;;;;5.15;1.40;;;;;;;5.68;100.00;93745.50;5049603;28;20253;-74
2022/11/21 11:39:19;;;;;;;3.55;1.15;;;;;;;5.61;100.00;93750.56;5049499;28;20229;-74
2022/11/21 11:48:08;;;;;;;1.25;1.00;;;;;;;6.22;100.00;93724.38;5061484;28;20204;-75
2022/11/21 11:50:41;;;;;;;2.15;1.40;;;;;;;6.47;99.80;93740.72;5049957;28;20204;-75
2022/11/21 11:53:17;;;;;;;2.25;0.98;;;;;;;6.19;97.92;93743.03;5050078;28;20207;-75
2022/11/21 11:55:51;;;;;;;0.65;0.63;;;;;;;6.04;95.90;93737.06;5049746;28;20219;-74
2022/11/21 11:58:25;;;;;;;1.65;1.20;;;;;;;5.87;96.60;93730.94;5063425;28;20203;-74
2022/11/21 12:01:00;;;;;;;1.23;1.00;;;;;;;5.86;96.92;93740.09;5050017;28;20200;-73
2022/11/21 12:03:36;;;;;;;0.80;0.73;;;;;;;6.04;96.00;93736.28;5063445;28;20701;-76
2022/11/21 12:06:12;;;;;;;1.10;1.00;;;;;;;6.28;97.11;93746.50;5050195;28;20203;-75
2022/11/21 12:08:50;;;;;;;1.20;0.52;;;;;;;6.30;94.89;93745.03;5050330;28;20265;-74